createdAt,value
2022-08-26T00:01:32.020Z,81.03
2022-08-26T00:04:02.574Z,84.93
2022-08-26T00:06:31.175Z,89.50
2022-08-26T00:08:57.940Z,88.67
2022-08-26T00:11:26.687Z,84.87
2022-08-26T00:13:54.715Z,87.23
2022-08-26T00:16:21.831Z,82.90
2022-08-26T00:18:48.616Z,84.73
2022-08-26T00:21:16.101Z,82.70
2022-08-26T00:23:42.791Z,83.20
2022-08-26T00:26:09.598Z,82.77
2022-08-26T00:28:38.000Z,78.47
2022-08-26T00:31:07.403Z,75.27
2022-08-26T00:33:39.869Z,80.27
2022-08-26T00:36:19.928Z,74.67
2022-08-26T00:38:49.251Z,70.47
2022-08-26T00:41:18.772Z,69.00
2022-08-26T00:43:47.778Z,70.27
2022-08-26T00:46:25.322Z,68.67
2022-08-26T00:48:53.807Z,68.60
2022-08-26T00:51:23.151Z,64.07
2022-08-26T00:53:59.221Z,63.53
2022-08-26T00:56:29.732Z,66.50
2022-08-26T00:58:58.971Z,60.53
2022-08-26T01:01:28.433Z,60.37
2022-08-26T01:03:58.703Z,59.53
2022-08-26T01:06:27.440Z,59.57
2022-08-26T01:08:54.599Z,61.83
2022-08-26T01:11:21.480Z,61.33
2022-08-26T01:13:48.646Z,60.67
2022-08-26T01:16:16.841Z,61.27
2022-08-26T01:18:44.127Z,63.37
2022-08-26T01:21:22.990Z,57.93
2022-08-26T01:23:52.091Z,56.80
2022-08-26T01:26:27.199Z,57.37
2022-08-26T01:28:59.207Z,59.00
2022-08-26T01:31:29.349Z,60.07
2022-08-26T01:34:09.024Z,60.43
2022-08-26T01:36:36.452Z,60.70
2022-08-26T01:39:03.413Z,58.50
2022-08-26T01:41:40.535Z,59.80
2022-08-26T01:44:13.352Z,60.60
2022-08-26T01:46:40.825Z,59.37
2022-08-26T01:51:54.005Z,54.17
2022-08-26T01:54:27.171Z,54.23
2022-08-26T01:56:54.063Z,58.53
2022-08-26T01:59:20.764Z,56.10
2022-08-26T02:01:48.796Z,54.40
2022-08-26T02:04:18.922Z,58.30
2022-08-26T02:06:47.514Z,56.80
2022-08-26T02:09:14.667Z,54.43
2022-08-26T02:11:41.778Z,55.13
2022-08-26T02:14:23.653Z,51.63
2022-08-26T02:16:54.477Z,53.70
2022-08-26T02:19:23.527Z,51.80
2022-08-26T02:21:51.058Z,52.10
2022-08-26T02:24:20.609Z,48.23
2022-08-26T02:26:48.015Z,51.03
2022-08-26T02:29:35.605Z,49.50
2022-08-26T02:32:02.445Z,48.30
2022-08-26T02:34:31.135Z,51.77
2022-08-26T02:37:08.061Z,48.77
2022-08-26T02:39:37.028Z,49.33
2022-08-26T02:42:05.355Z,45.70
2022-08-26T02:44:37.179Z,44.43
2022-08-26T02:47:05.254Z,45.90
2022-08-26T02:49:31.965Z,48.10
2022-08-26T02:52:02.022Z,45.53
2022-08-26T02:54:28.997Z,44.00
2022-08-26T02:56:56.393Z,46.87
2022-08-26T02:59:24.237Z,40.03
2022-08-26T03:01:53.070Z,44.00
2022-08-26T03:04:23.751Z,40.67
2022-08-26T03:06:56.745Z,43.43
2022-08-26T03:09:23.944Z,44.30
2022-08-26T03:11:51.301Z,41.13
2022-08-26T03:14:18.599Z,38.73
2022-08-26T03:16:48.350Z,38.70
2022-08-26T03:19:15.510Z,38.13
2022-08-26T03:21:44.380Z,38.83
2022-08-26T03:24:14.370Z,35.43
2022-08-26T03:26:41.009Z,36.07
2022-08-26T03:29:38.763Z,33.93
2022-08-26T03:32:06.185Z,34.40
2022-08-26T03:34:33.214Z,36.17
2022-08-26T03:36:59.939Z,30.57
2022-08-26T03:39:26.650Z,32.67
2022-08-26T03:41:54.714Z,32.57
2022-08-26T03:44:21.715Z,37.53
2022-08-26T03:46:48.458Z,32.00
2022-08-26T03:49:15.780Z,33.47
2022-08-26T03:51:42.440Z,32.27
2022-08-26T03:54:09.361Z,30.67
2022-08-26T03:56:36.695Z,29.30
2022-08-26T03:59:04.035Z,28.30
2022-08-26T04:01:31.446Z,29.70
2022-08-26T04:04:00.233Z,27.07
2022-08-26T04:06:35.641Z,28.07
2022-08-26T04:09:05.274Z,27.40
2022-08-26T04:11:34.691Z,26.77
2022-08-26T04:14:03.406Z,26.53
2022-08-26T04:16:30.149Z,28.10
2022-08-26T04:18:57.445Z,24.67
2022-08-26T04:21:24.667Z,25.30
2022-08-26T04:23:51.777Z,25.07
2022-08-26T04:26:19.944Z,24.30
2022-08-26T04:28:47.234Z,22.50
2022-08-26T04:31:15.054Z,20.20
2022-08-26T04:33:42.806Z,22.33
2022-08-26T04:36:11.603Z,18.90
2022-08-26T04:38:38.958Z,17.30
2022-08-26T04:41:15.685Z,18.47
2022-08-26T04:43:44.516Z,17.90
2022-08-26T04:46:13.088Z,18.93
2022-08-26T04:48:41.421Z,18.37
2022-08-26T04:51:09.119Z,17.40
2022-08-26T04:53:36.837Z,18.07
2022-08-26T04:56:04.373Z,17.97
2022-08-26T04:58:32.026Z,18.60
2022-08-26T05:00:58.709Z,17.23
2022-08-26T05:03:27.461Z,16.20
2022-08-26T05:05:58.634Z,18.87
2022-08-26T05:08:25.871Z,17.83
2022-08-26T05:10:59.379Z,18.77
2022-08-26T05:13:27.674Z,18.20
2022-08-26T05:15:54.606Z,17.97
2022-08-26T05:18:27.424Z,19.07
2022-08-26T05:20:54.819Z,17.17
2022-08-26T05:23:23.144Z,17.20
2022-08-26T05:25:53.590Z,19.57
2022-08-26T05:28:22.701Z,18.70
2022-08-26T05:30:49.617Z,15.83
2022-08-26T05:33:17.020Z,17.23
2022-08-26T05:35:44.501Z,16.07
2022-08-26T05:38:14.504Z,16.17
2022-08-26T05:40:44.666Z,16.63
2022-08-26T05:43:11.849Z,16.70
2022-08-26T05:45:46.330Z,17.20
2022-08-26T05:48:14.070Z,16.80
2022-08-26T05:50:41.737Z,14.40
2022-08-26T05:53:10.608Z,15.80
2022-08-26T05:55:48.925Z,15.23
2022-08-26T05:58:17.492Z,15.33
2022-08-26T06:00:45.401Z,14.00
2022-08-26T06:03:12.473Z,16.20
2022-08-26T06:05:40.029Z,14.77
2022-08-26T06:08:16.109Z,14.67
2022-08-26T06:10:50.917Z,16.83
2022-08-26T06:13:27.865Z,16.90
2022-08-26T06:15:59.362Z,13.47
2022-08-26T06:18:30.611Z,15.33
2022-08-26T06:20:59.726Z,13.23
2022-08-26T06:23:46.120Z,13.97
2022-08-26T06:26:14.019Z,12.80
2022-08-26T06:28:41.136Z,13.30
2022-08-26T06:31:12.279Z,11.73
2022-08-26T06:33:39.216Z,11.90
2022-08-26T06:36:06.697Z,11.40
2022-08-26T06:38:33.511Z,10.30
2022-08-26T06:41:01.085Z,11.23
2022-08-26T06:43:29.528Z,10.00
2022-08-26T06:46:04.873Z,9.43
2022-08-26T06:48:32.090Z,10.30
2022-08-26T06:51:10.107Z,9.30
2022-08-26T06:53:37.890Z,9.97
2022-08-26T06:56:08.742Z,9.90
2022-08-26T06:58:36.691Z,9.17
2022-08-26T07:01:11.205Z,9.90
2022-08-26T07:03:39.421Z,9.17
2022-08-26T07:06:06.611Z,9.53
2022-08-26T07:08:33.909Z,8.13
2022-08-26T07:11:04.446Z,6.93
2022-08-26T07:13:31.556Z,8.40
2022-08-26T07:16:03.154Z,8.30
2022-08-26T07:18:33.665Z,7.83
2022-08-26T07:21:06.093Z,7.20
2022-08-26T07:23:33.857Z,7.40
2022-08-26T07:26:04.581Z,7.70
2022-08-26T07:28:31.884Z,7.40
2022-08-26T07:30:58.591Z,7.50
2022-08-26T07:33:25.418Z,6.83
2022-08-26T07:35:52.205Z,7.83
2022-08-26T07:38:22.219Z,8.10
2022-08-26T07:40:52.600Z,7.93
2022-08-26T07:43:20.217Z,8.23
2022-08-26T07:45:47.289Z,7.87
2022-08-26T07:48:14.175Z,7.37
2022-08-26T07:50:49.233Z,6.93
2022-08-26T07:53:17.997Z,6.50
2022-08-26T07:55:44.838Z,6.93
2022-08-26T07:58:11.830Z,8.40
2022-08-26T08:00:39.493Z,6.87
2022-08-26T08:03:06.347Z,8.37
2022-08-26T08:05:33.908Z,8.53
2022-08-26T08:08:26.213Z,6.80
2022-08-26T08:11:24.175Z,7.53
2022-08-26T08:13:56.480Z,7.17
2022-08-26T08:16:28.333Z,6.80
2022-08-26T08:18:59.312Z,6.30
2022-08-26T08:21:27.933Z,6.50
2022-08-26T08:23:57.122Z,7.10
2022-08-26T08:26:25.416Z,8.53
2022-08-26T08:28:56.125Z,8.27
2022-08-26T08:31:52.454Z,7.20
2022-08-26T08:34:11.022Z,7.70
2022-08-26T08:36:37.709Z,7.60
2022-08-26T08:39:05.153Z,6.30
2022-08-26T08:41:52.605Z,6.27
2022-08-26T08:46:55.296Z,6.10
2022-08-26T08:49:22.966Z,7.07
2022-08-26T08:51:49.849Z,7.90
2022-08-26T08:54:16.755Z,7.30
2022-08-26T08:56:46.340Z,7.00
2022-08-26T08:59:21.962Z,6.57
2022-08-26T09:01:59.255Z,8.40
2022-08-26T09:04:45.261Z,7.43
2022-08-26T09:07:38.524Z,8.07
2022-08-26T09:10:05.212Z,7.23
2022-08-26T09:12:32.982Z,7.17
2022-08-26T09:15:30.155Z,7.00
2022-08-26T09:18:29.837Z,6.67
2022-08-26T09:21:08.329Z,6.90
2022-08-26T09:23:37.694Z,6.70
2022-08-26T09:26:25.929Z,6.47
2022-08-26T09:29:31.600Z,6.20
2022-08-26T09:32:19.337Z,6.33
2022-08-26T09:34:59.194Z,5.87
2022-08-26T09:37:37.199Z,6.77
2022-08-26T09:40:15.870Z,6.47
2022-08-26T09:42:43.493Z,6.97
2022-08-26T09:45:11.829Z,7.33
2022-08-26T09:47:39.826Z,7.33
2022-08-26T09:50:29.128Z,6.53
2022-08-26T09:53:09.970Z,7.27
2022-08-26T09:55:41.945Z,7.80
2022-08-26T09:58:12.312Z,7.17
2022-08-26T10:00:40.362Z,6.90
2022-08-26T10:03:21.674Z,9.23
2022-08-26T10:05:59.070Z,8.30
2022-08-26T10:08:31.763Z,7.13
2022-08-26T10:11:01.278Z,6.87
2022-08-26T10:13:31.272Z,7.17
2022-08-26T10:16:07.270Z,6.60
2022-08-26T10:18:40.473Z,6.40
2022-08-26T10:21:35.692Z,6.50
2022-08-26T10:24:03.533Z,7.00
2022-08-26T10:26:53.341Z,5.63
2022-08-26T10:29:25.989Z,5.83
2022-08-26T10:32:02.476Z,6.70
2022-08-26T10:34:31.938Z,5.07
2022-08-26T10:37:14.724Z,4.50
2022-08-26T10:39:59.305Z,5.50
2022-08-26T10:42:32.394Z,4.93
2022-08-26T10:45:03.153Z,4.63
2022-08-26T10:47:56.760Z,5.10
2022-08-26T10:50:25.921Z,5.47
2022-08-26T10:52:59.034Z,5.40
2022-08-26T10:55:40.816Z,4.13
2022-08-26T10:58:27.539Z,4.50
2022-08-26T11:01:17.275Z,6.27
2022-08-26T11:03:49.758Z,6.07
2022-08-26T11:06:37.237Z,5.53
2022-08-26T11:09:05.573Z,5.70
2022-08-26T11:12:06.878Z,6.00
2022-08-26T11:14:53.206Z,6.70
2022-08-26T11:17:41.502Z,7.00
2022-08-26T11:20:34.036Z,6.90
2022-08-26T11:23:13.760Z,7.70
2022-08-26T11:25:55.717Z,7.20
2022-08-26T11:28:48.035Z,7.00
2022-08-26T11:31:14.800Z,6.90
2022-08-26T11:33:48.158Z,6.87
2022-08-26T11:36:33.724Z,7.20
2022-08-26T11:39:02.998Z,5.67
2022-08-26T11:41:31.330Z,6.50
2022-08-26T11:43:59.702Z,5.03
2022-08-26T11:46:36.157Z,5.80
2022-08-26T11:49:06.565Z,6.03
2022-08-26T11:51:38.213Z,5.70
2022-08-26T11:54:22.871Z,5.33
2022-08-26T11:57:06.023Z,7.37
2022-08-26T11:59:38.954Z,6.47
2022-08-26T12:02:12.871Z,6.60
2022-08-26T12:04:43.081Z,5.10
2022-08-26T12:07:37.110Z,4.80
2022-08-26T12:10:10.857Z,5.13
2022-08-26T12:12:42.198Z,4.63
2022-08-26T12:15:10.275Z,4.83
2022-08-26T12:17:40.751Z,5.40
2022-08-26T12:20:17.668Z,4.23
2022-08-26T12:22:48.028Z,5.13
2022-08-26T12:25:23.935Z,4.20
2022-08-26T12:27:54.078Z,4.93
2022-08-26T12:30:27.181Z,5.13
2022-08-26T12:33:22.529Z,7.20
2022-08-26T12:35:52.869Z,6.20
2022-08-26T12:38:22.246Z,5.50
2022-08-26T12:40:50.357Z,5.90
2022-08-26T12:43:35.936Z,4.90
2022-08-26T12:46:06.780Z,4.53
2022-08-26T12:48:36.143Z,5.13
2022-08-26T12:51:03.300Z,5.10
2022-08-26T12:53:32.351Z,4.70
2022-08-26T12:56:08.384Z,4.67
2022-08-26T12:58:36.619Z,3.50
2022-08-26T13:01:08.142Z,4.00
2022-08-26T13:03:34.997Z,4.07
2022-08-26T13:06:08.818Z,6.20
2022-08-26T13:08:52.850Z,5.33
2022-08-26T13:11:20.546Z,4.93
2022-08-26T13:13:48.101Z,3.90
2022-08-26T13:16:18.012Z,4.10
2022-08-26T13:18:46.892Z,4.30
2022-08-26T13:21:17.373Z,3.70
2022-08-26T13:23:44.623Z,4.70
2022-08-26T13:26:11.617Z,4.10
2022-08-26T13:28:38.857Z,3.53
2022-08-26T13:31:06.491Z,4.17
2022-08-26T13:33:34.332Z,3.60
2022-08-26T13:36:01.142Z,3.27
2022-08-26T13:38:33.774Z,3.10
2022-08-26T13:41:03.651Z,3.87
2022-08-26T13:43:32.088Z,4.57
2022-08-26T13:45:59.213Z,3.90
2022-08-26T13:48:26.276Z,3.90
2022-08-26T13:50:53.857Z,3.57
2022-08-26T13:53:20.485Z,3.77
2022-08-26T13:55:48.069Z,3.90
2022-08-26T13:58:15.212Z,5.63
2022-08-26T14:00:42.033Z,4.00
2022-08-26T14:03:13.225Z,3.60
2022-08-26T14:05:41.644Z,4.23
2022-08-26T14:08:08.659Z,3.90
2022-08-26T14:10:35.767Z,4.13
2022-08-26T14:13:13.260Z,3.80
2022-08-26T14:15:41.941Z,3.40
2022-08-26T14:18:13.390Z,3.37
2022-08-26T14:20:47.973Z,3.73
2022-08-26T14:23:25.052Z,4.30
2022-08-26T14:25:55.714Z,3.97
2022-08-26T14:28:23.170Z,3.33
2022-08-26T14:30:55.183Z,4.50
2022-08-26T14:33:27.077Z,4.30
2022-08-26T14:36:13.814Z,5.37
2022-08-26T14:38:41.476Z,5.20
2022-08-26T14:41:08.124Z,7.67
2022-08-26T14:43:34.944Z,6.00
2022-08-26T14:46:01.796Z,7.20
2022-08-26T14:48:40.190Z,5.57
2022-08-26T14:51:09.223Z,6.37
2022-08-26T14:53:54.613Z,6.90
2022-08-26T14:56:22.912Z,6.70
2022-08-26T14:58:52.852Z,6.43
2022-08-26T15:01:19.601Z,6.97
2022-08-26T15:03:46.674Z,7.50
2022-08-26T15:06:14.352Z,7.10
2022-08-26T15:08:41.738Z,7.60
2022-08-26T15:11:08.881Z,9.13
2022-08-26T15:13:35.731Z,8.20
2022-08-26T15:16:02.726Z,9.50
2022-08-26T15:18:31.857Z,8.63
2022-08-26T15:20:58.595Z,8.13
2022-08-26T15:23:25.574Z,8.40
2022-08-26T15:25:52.713Z,7.77
2022-08-26T15:28:19.627Z,7.90
2022-08-26T15:30:49.701Z,6.77
2022-08-26T15:33:17.356Z,6.00
2022-08-26T15:35:44.738Z,7.63
2022-08-26T15:38:13.531Z,6.90
2022-08-26T15:40:43.741Z,6.20
2022-08-26T15:43:25.727Z,7.63
2022-08-26T15:45:58.817Z,7.30
2022-08-26T15:48:25.645Z,6.60
2022-08-26T15:50:57.403Z,7.10
2022-08-26T15:53:30.232Z,7.13
2022-08-26T15:55:58.246Z,6.93
2022-08-26T15:58:29.831Z,5.80
2022-08-26T16:00:57.585Z,5.20
2022-08-26T16:03:24.478Z,6.10
2022-08-26T16:05:51.757Z,4.80
2022-08-26T16:08:19.046Z,6.07
2022-08-26T16:10:50.015Z,5.17
2022-08-26T16:13:17.930Z,5.03
2022-08-26T16:15:47.337Z,4.30
2022-08-26T16:18:15.679Z,5.50
2022-08-26T16:21:06.586Z,4.83
2022-08-26T16:23:38.558Z,4.93
2022-08-26T16:26:10.585Z,4.50
2022-08-26T16:28:39.324Z,4.80
2022-08-26T16:31:07.123Z,4.77
2022-08-26T16:33:34.038Z,4.60
2022-08-26T16:36:01.155Z,3.90
2022-08-26T16:38:28.116Z,3.90
2022-08-26T16:40:55.150Z,3.13
2022-08-26T16:43:22.195Z,5.07
2022-08-26T16:45:50.138Z,4.63
2022-08-26T16:48:16.988Z,4.73
2022-08-26T16:50:43.744Z,4.20
2022-08-26T16:56:00.162Z,4.27
2022-08-26T16:58:27.228Z,4.23
2022-08-26T17:00:58.924Z,4.50
2022-08-26T17:03:36.322Z,4.80
2022-08-26T17:06:03.460Z,4.63
2022-08-26T17:08:30.532Z,4.33
2022-08-26T17:10:59.140Z,4.70
2022-08-26T17:13:34.848Z,5.13
2022-08-26T17:16:04.227Z,5.00
2022-08-26T17:18:32.494Z,3.80
2022-08-26T17:21:04.111Z,5.17
2022-08-26T17:23:31.071Z,4.30
2022-08-26T17:25:58.045Z,3.70
2022-08-26T17:28:24.890Z,4.13
2022-08-26T17:30:52.118Z,3.87
2022-08-26T17:33:22.019Z,4.00
2022-08-26T17:35:51.580Z,5.87
2022-08-26T17:38:18.455Z,4.90
2022-08-26T17:40:45.671Z,4.37
2022-08-26T17:43:12.806Z,4.40
2022-08-26T17:45:40.578Z,4.67
2022-08-26T17:48:07.520Z,5.00
2022-08-26T17:50:34.424Z,4.73
2022-08-26T17:53:01.956Z,6.17
2022-08-26T17:58:14.920Z,6.10
2022-08-26T18:00:46.384Z,5.93
2022-08-26T18:03:15.479Z,6.03
2022-08-26T18:05:43.051Z,5.43
2022-08-26T18:08:09.926Z,5.93
2022-08-26T18:10:36.985Z,5.57
2022-08-26T18:13:07.021Z,6.70
2022-08-26T18:15:34.131Z,7.13
2022-08-26T18:18:02.163Z,5.87
2022-08-26T18:20:29.322Z,6.33
2022-08-26T18:22:56.224Z,7.03
2022-08-26T18:25:23.524Z,5.20
2022-08-26T18:27:50.476Z,4.07
2022-08-26T18:30:34.521Z,4.30
2022-08-26T18:33:04.961Z,4.03
2022-08-26T18:35:32.055Z,4.73
2022-08-26T18:38:07.947Z,2.60
2022-08-26T18:40:43.882Z,2.63
2022-08-26T18:43:11.007Z,2.97
2022-08-26T18:45:37.916Z,3.00
2022-08-26T18:48:04.773Z,3.73
2022-08-26T18:50:31.866Z,2.20
2022-08-26T18:52:58.623Z,2.27
2022-08-26T18:55:25.528Z,2.43
2022-08-26T18:57:52.381Z,2.50
2022-08-26T19:00:19.403Z,2.17
2022-08-26T19:02:46.904Z,1.97
2022-08-26T19:05:19.408Z,2.97
2022-08-26T19:07:47.985Z,2.40
2022-08-26T19:10:15.180Z,2.63
2022-08-26T19:12:42.443Z,2.30
2022-08-26T19:15:13.367Z,2.10
2022-08-26T19:17:40.319Z,2.27
2022-08-26T19:20:08.279Z,1.73
2022-08-26T19:22:35.225Z,2.70
2022-08-26T19:25:02.244Z,2.17
2022-08-26T19:27:29.986Z,2.20
2022-08-26T19:29:57.725Z,3.70
2022-08-26T19:32:25.973Z,3.47
2022-08-26T19:34:54.652Z,2.87
2022-08-26T19:37:23.738Z,3.00
2022-08-26T19:39:55.959Z,3.70
2022-08-26T19:42:23.000Z,2.80
2022-08-26T19:45:13.958Z,2.40
2022-08-26T19:47:53.006Z,4.07
2022-08-26T19:50:21.698Z,2.50
2022-08-26T19:52:51.935Z,3.03
2022-08-26T19:55:19.486Z,2.00
2022-08-26T19:57:46.420Z,2.83
2022-08-26T20:00:15.434Z,2.97
2022-08-26T20:02:42.829Z,2.73
2022-08-26T20:05:10.798Z,2.80
2022-08-26T20:07:37.849Z,2.30
2022-08-26T20:10:38.432Z,2.77
2022-08-26T20:13:10.748Z,2.47
2022-08-26T20:15:37.534Z,3.03
2022-08-26T20:18:24.581Z,2.10
2022-08-26T20:21:10.047Z,2.50
2022-08-26T20:23:37.029Z,2.47
2022-08-26T20:26:04.262Z,2.17
2022-08-26T20:28:32.342Z,1.93
2022-08-26T20:30:59.627Z,2.20
2022-08-26T20:33:26.665Z,3.90
2022-08-26T20:35:53.489Z,2.13
2022-08-26T20:38:21.587Z,2.93
2022-08-26T20:40:49.318Z,2.07
2022-08-26T20:43:16.364Z,2.33
2022-08-26T20:45:43.400Z,1.30
2022-08-26T20:48:11.121Z,2.63
2022-08-26T20:50:39.138Z,2.00
2022-08-26T20:53:06.348Z,2.07
2022-08-26T20:55:33.781Z,1.60
2022-08-26T20:58:00.645Z,2.50
2022-08-26T21:00:28.802Z,1.90
2022-08-26T21:02:59.029Z,2.80
2022-08-26T21:05:27.101Z,2.70
2022-08-26T21:07:54.069Z,2.10
2022-08-26T21:10:21.232Z,2.63
2022-08-26T21:12:49.996Z,2.30
2022-08-26T21:15:17.048Z,2.03
2022-08-26T21:17:43.897Z,2.93
2022-08-26T21:20:11.984Z,2.50
2022-08-26T21:22:39.140Z,2.73
2022-08-26T21:25:06.355Z,2.13
2022-08-26T21:27:34.556Z,1.50
2022-08-26T21:30:01.477Z,1.80
2022-08-26T21:32:31.288Z,1.90
2022-08-26T21:34:59.165Z,2.50
2022-08-26T21:37:26.730Z,2.17
2022-08-26T21:39:56.014Z,1.90
2022-08-26T21:42:24.607Z,3.13
2022-08-26T21:44:52.938Z,2.37
2022-08-26T21:47:20.703Z,2.60
2022-08-26T21:49:47.832Z,2.80
2022-08-26T21:52:14.598Z,1.93
2022-08-26T21:54:41.308Z,2.80
2022-08-26T21:57:16.429Z,2.70
2022-08-26T21:59:43.325Z,3.13
2022-08-26T22:02:11.128Z,2.37
2022-08-26T22:04:38.023Z,2.27
2022-08-26T22:07:05.077Z,3.10
2022-08-26T22:09:31.781Z,2.60
2022-08-26T22:12:00.105Z,4.40
2022-08-26T22:14:30.687Z,2.33
2022-08-26T22:16:58.987Z,2.80
2022-08-26T22:19:26.127Z,1.77
2022-08-26T22:21:53.764Z,2.10
2022-08-26T22:24:21.932Z,2.73
2022-08-26T22:26:49.141Z,2.63
2022-08-26T22:29:16.230Z,3.17
2022-08-26T22:31:43.090Z,3.40
2022-08-26T22:34:11.682Z,1.90
2022-08-26T22:36:43.646Z,2.17
2022-08-26T22:39:11.767Z,2.47
2022-08-26T22:41:38.425Z,2.40
2022-08-26T22:44:05.211Z,2.87
2022-08-26T22:46:34.829Z,2.33
2022-08-26T22:49:01.592Z,2.43
2022-08-26T22:51:28.863Z,1.70
2022-08-26T22:53:55.738Z,3.70
2022-08-26T22:56:22.495Z,2.60
2022-08-26T22:58:49.359Z,2.43
2022-08-26T23:01:17.140Z,2.40
2022-08-26T23:03:44.172Z,1.80
2022-08-26T23:06:11.233Z,2.63
2022-08-26T23:08:39.406Z,1.73
2022-08-26T23:11:10.015Z,2.30
2022-08-26T23:13:36.719Z,2.20
2022-08-26T23:16:05.309Z,2.63
2022-08-26T23:18:32.430Z,1.80
2022-08-26T23:20:59.207Z,3.83
2022-08-26T23:23:27.570Z,2.00
2022-08-26T23:25:55.526Z,2.77
2022-08-26T23:28:22.714Z,3.67
2022-08-26T23:30:49.999Z,2.70
2022-08-26T23:33:16.822Z,2.80
2022-08-26T23:35:43.580Z,2.93
2022-08-26T23:38:10.404Z,2.60
2022-08-26T23:40:41.066Z,2.00
2022-08-26T23:43:08.718Z,2.37
2022-08-26T23:45:35.953Z,3.67
2022-08-26T23:48:03.183Z,3.17
2022-08-26T23:50:49.626Z,2.70
2022-08-26T23:53:21.298Z,2.63
2022-08-26T23:55:49.477Z,2.23
2022-08-26T23:58:17.565Z,3.87
